createdAt,value
2022-08-20T00:00:29.080Z,15.77
2022-08-20T00:02:58.699Z,14.83
2022-08-20T00:05:28.077Z,14.95
2022-08-20T00:07:57.136Z,14.47
2022-08-20T00:10:24.791Z,15.70
2022-08-20T00:12:52.671Z,16.10
2022-08-20T00:15:21.958Z,16.00
2022-08-20T00:17:50.656Z,15.77
2022-08-20T00:20:19.089Z,15.63
2022-08-20T00:22:46.633Z,16.40
2022-08-20T00:25:16.331Z,15.77
2022-08-20T00:27:43.791Z,16.47
2022-08-20T00:30:12.682Z,14.93
2022-08-20T00:32:44.231Z,16.60
2022-08-20T00:35:13.147Z,15.48
2022-08-20T00:37:40.919Z,16.03
2022-08-20T00:40:22.876Z,16.27
2022-08-20T00:42:53.829Z,16.27
2022-08-20T00:45:21.704Z,17.00
2022-08-20T00:47:51.508Z,15.27
2022-08-20T00:50:20.512Z,15.88
2022-08-20T00:52:51.057Z,16.35
2022-08-20T00:55:20.471Z,15.57
2022-08-20T00:58:01.514Z,15.88
2022-08-20T01:00:31.827Z,17.42
2022-08-20T01:03:00.535Z,17.80
2022-08-20T01:05:29.598Z,18.60
2022-08-20T01:07:58.396Z,18.48
2022-08-20T01:10:28.651Z,17.52
2022-08-20T01:12:59.483Z,17.88
2022-08-20T01:15:30.755Z,19.45
2022-08-20T01:18:00.620Z,18.08
2022-08-20T01:20:29.772Z,18.33
2022-08-20T01:23:18.944Z,17.42
2022-08-20T01:25:49.133Z,16.57
2022-08-20T01:28:18.745Z,17.52
2022-08-20T01:30:46.515Z,17.73
2022-08-20T01:33:14.282Z,16.52
2022-08-20T01:35:43.674Z,15.55
2022-08-20T01:38:11.646Z,14.38
2022-08-20T01:40:56.070Z,15.23
2022-08-20T01:43:25.179Z,15.25
2022-08-20T01:45:53.837Z,13.52
2022-08-20T01:48:22.231Z,14.48
2022-08-20T01:50:53.459Z,15.18
2022-08-20T01:53:25.170Z,14.00
2022-08-20T01:55:52.621Z,13.50
2022-08-20T01:58:20.146Z,13.37
2022-08-20T02:00:48.975Z,13.45
2022-08-20T02:03:16.475Z,13.60
2022-08-20T02:05:43.991Z,13.35
2022-08-20T02:08:11.598Z,13.02
2022-08-20T02:10:39.095Z,11.20
2022-08-20T02:13:09.218Z,11.50
2022-08-20T02:15:37.352Z,11.82
2022-08-20T02:18:10.280Z,11.57
2022-08-20T02:20:38.104Z,10.07
2022-08-20T02:23:06.587Z,10.82
2022-08-20T02:25:35.356Z,11.30
2022-08-20T02:28:03.643Z,9.93
2022-08-20T02:30:34.174Z,10.88
2022-08-20T02:33:02.607Z,10.88
2022-08-20T02:35:32.432Z,10.55
2022-08-20T02:38:01.966Z,11.80
2022-08-20T02:40:31.454Z,13.25
2022-08-20T02:42:59.432Z,13.07
2022-08-20T02:45:26.976Z,13.50
2022-08-20T02:47:56.654Z,14.00
2022-08-20T02:50:25.435Z,14.23
2022-08-20T02:52:54.965Z,12.98
2022-08-20T02:55:28.206Z,14.20
2022-08-20T02:57:58.519Z,14.02
2022-08-20T03:00:27.191Z,14.10
2022-08-20T03:02:54.733Z,14.68
2022-08-20T03:05:22.394Z,14.00
2022-08-20T03:07:53.461Z,15.82
2022-08-20T03:10:24.496Z,15.65
2022-08-20T03:12:52.546Z,15.15
2022-08-20T03:15:20.666Z,15.35
2022-08-20T03:17:48.434Z,16.42
2022-08-20T03:20:16.556Z,17.30
2022-08-20T03:22:44.328Z,15.45
2022-08-20T03:25:12.424Z,15.75
2022-08-20T03:27:41.351Z,16.75
2022-08-20T03:30:10.719Z,15.85
2022-08-20T03:32:38.552Z,14.98
2022-08-20T03:35:07.281Z,15.55
2022-08-20T03:37:35.508Z,15.98
2022-08-20T03:40:03.642Z,14.43
2022-08-20T03:42:31.344Z,15.95
2022-08-20T03:45:00.746Z,15.15
2022-08-20T03:47:28.357Z,16.25
2022-08-20T03:49:58.986Z,15.15
2022-08-20T03:52:27.156Z,15.30
2022-08-20T03:54:54.707Z,15.75
2022-08-20T03:57:22.428Z,15.52
2022-08-20T03:59:54.925Z,16.40
2022-08-20T04:02:28.155Z,15.80
2022-08-20T04:04:56.148Z,14.95
2022-08-20T04:07:27.087Z,16.15
2022-08-20T04:09:54.873Z,15.93
2022-08-20T04:12:22.594Z,16.70
2022-08-20T04:14:50.101Z,15.73
2022-08-20T04:17:18.458Z,15.73
2022-08-20T04:19:47.919Z,16.50
2022-08-20T04:22:15.457Z,16.08
2022-08-20T04:24:43.343Z,16.43
2022-08-20T04:27:11.020Z,16.80
2022-08-20T04:29:42.968Z,16.77
2022-08-20T04:32:10.981Z,16.13
2022-08-20T04:34:38.619Z,16.60
2022-08-20T04:37:16.615Z,16.60
2022-08-20T04:39:44.981Z,15.93
2022-08-20T04:42:11.535Z,15.77
2022-08-20T04:44:39.787Z,16.80
2022-08-20T04:47:07.985Z,15.67
2022-08-20T04:49:35.512Z,15.57
2022-08-20T04:52:03.261Z,15.13
2022-08-20T04:54:32.165Z,16.92
2022-08-20T04:57:01.516Z,15.60
2022-08-20T04:59:29.133Z,17.38
2022-08-20T05:01:56.712Z,16.67
2022-08-20T05:04:27.603Z,17.48
2022-08-20T05:06:55.564Z,16.27
2022-08-20T05:09:23.800Z,17.97
2022-08-20T05:11:52.624Z,18.75
2022-08-20T05:14:20.122Z,18.15
2022-08-20T05:16:47.654Z,17.67
2022-08-20T05:19:15.120Z,18.50
2022-08-20T05:21:42.808Z,18.02
2022-08-20T05:24:11.908Z,18.67
2022-08-20T05:26:39.689Z,18.05
2022-08-20T05:29:08.558Z,19.08
2022-08-20T05:31:36.282Z,18.08
2022-08-20T05:34:03.904Z,17.85
2022-08-20T05:36:31.509Z,18.58
2022-08-20T05:38:59.079Z,19.80
2022-08-20T05:41:29.310Z,18.17
2022-08-20T05:43:57.458Z,19.98
2022-08-20T05:46:26.324Z,21.02
2022-08-20T05:48:53.829Z,21.23
2022-08-20T05:51:21.607Z,22.15
2022-08-20T05:53:49.125Z,21.50
2022-08-20T05:56:16.623Z,23.27
2022-08-20T05:58:44.128Z,20.90
2022-08-20T06:01:11.708Z,22.75
2022-08-20T06:03:57.910Z,21.58
2022-08-20T06:06:44.288Z,20.98
2022-08-20T06:09:13.203Z,25.00
2022-08-20T06:11:40.724Z,30.23
2022-08-20T06:14:08.251Z,21.77
2022-08-20T06:16:37.317Z,22.73
2022-08-20T06:19:06.872Z,24.02
2022-08-20T06:21:38.860Z,26.20
2022-08-20T06:24:06.676Z,25.13
2022-08-20T06:26:35.345Z,23.88
2022-08-20T06:29:03.176Z,20.45
2022-08-20T06:31:30.701Z,21.83
2022-08-20T06:33:58.363Z,22.13
2022-08-20T06:36:27.461Z,21.48
2022-08-20T06:38:56.109Z,20.52
2022-08-20T06:41:23.627Z,19.92
2022-08-20T06:44:04.152Z,19.98
2022-08-20T06:46:32.189Z,18.83
2022-08-20T06:49:00.119Z,18.13
2022-08-20T06:51:29.334Z,19.65
2022-08-20T06:53:56.875Z,21.35
2022-08-20T06:56:24.513Z,19.13
2022-08-20T06:58:52.140Z,18.73
2022-08-20T07:01:21.184Z,16.90
2022-08-20T07:03:55.369Z,16.88
2022-08-20T07:06:25.317Z,16.05
2022-08-20T07:08:54.370Z,15.75
2022-08-20T07:11:27.283Z,17.05
2022-08-20T07:13:56.509Z,17.65
2022-08-20T07:16:24.035Z,16.77
2022-08-20T07:18:51.593Z,15.63
2022-08-20T07:21:19.137Z,16.20
2022-08-20T07:23:48.844Z,16.30
2022-08-20T07:26:17.859Z,15.93
2022-08-20T07:28:45.352Z,14.90
2022-08-20T07:31:42.205Z,16.50
2022-08-20T07:34:11.506Z,14.48
2022-08-20T07:36:39.002Z,15.55
2022-08-20T07:39:07.036Z,14.38
2022-08-20T07:41:35.983Z,16.25
2022-08-20T07:44:03.721Z,14.60
2022-08-20T07:46:31.627Z,15.30
2022-08-20T07:48:59.789Z,15.23
2022-08-20T07:51:27.598Z,15.45
2022-08-20T07:53:55.139Z,14.13
2022-08-20T07:56:24.368Z,15.27
2022-08-20T07:58:55.261Z,15.65
2022-08-20T08:01:25.526Z,15.57
2022-08-20T08:03:53.411Z,17.17
2022-08-20T08:06:30.427Z,16.73
2022-08-20T08:08:59.999Z,15.80
2022-08-20T08:11:27.588Z,18.17
2022-08-20T08:13:56.449Z,17.45
2022-08-20T08:16:24.083Z,16.23
2022-08-20T08:18:56.295Z,16.13
2022-08-20T08:21:23.971Z,17.33
2022-08-20T08:23:51.541Z,15.52
2022-08-20T08:26:19.399Z,17.17
2022-08-20T08:28:47.290Z,15.25
2022-08-20T08:31:16.530Z,14.18
2022-08-20T08:33:45.603Z,14.50
2022-08-20T08:36:14.079Z,14.75
2022-08-20T08:38:42.953Z,13.38
2022-08-20T08:41:13.772Z,13.15
2022-08-20T08:43:41.455Z,13.38
2022-08-20T08:46:11.012Z,13.30
2022-08-20T08:48:43.504Z,14.27
2022-08-20T08:51:12.360Z,13.68
2022-08-20T08:53:42.121Z,14.30
2022-08-20T08:56:10.275Z,12.60
2022-08-20T08:58:37.836Z,12.15
2022-08-20T09:01:53.029Z,10.85
2022-08-20T09:03:59.055Z,13.13
2022-08-20T09:06:28.259Z,11.68
2022-08-20T09:08:57.956Z,12.50
2022-08-20T09:11:26.306Z,12.10
2022-08-20T09:13:54.466Z,13.40
2022-08-20T09:16:23.173Z,12.30
2022-08-20T09:18:51.209Z,12.80
2022-08-20T09:21:20.601Z,13.48
2022-08-20T09:23:48.439Z,12.80
2022-08-20T09:26:16.530Z,13.25
2022-08-20T09:28:45.117Z,12.55
2022-08-20T09:31:19.296Z,12.02
2022-08-20T09:33:49.809Z,11.90
2022-08-20T09:36:28.773Z,12.73
2022-08-20T09:39:03.148Z,12.80
2022-08-20T09:41:33.590Z,12.05
2022-08-20T09:44:01.796Z,13.13
2022-08-20T09:46:29.624Z,12.93
2022-08-20T09:48:57.631Z,11.45
2022-08-20T09:51:25.258Z,11.82
2022-08-20T09:53:52.890Z,12.63
2022-08-20T09:56:21.785Z,13.95
2022-08-20T09:58:50.372Z,23.05
2022-08-20T10:01:19.020Z,13.25
2022-08-20T10:03:48.914Z,13.07
2022-08-20T10:06:16.727Z,11.82
2022-08-20T10:08:44.456Z,11.15
2022-08-20T10:11:12.018Z,11.52
2022-08-20T10:13:41.059Z,11.55
2022-08-20T10:16:08.662Z,11.30
2022-08-20T10:18:36.248Z,11.50
2022-08-20T10:21:03.827Z,12.77
2022-08-20T10:23:31.346Z,10.73
2022-08-20T10:25:58.806Z,12.38
2022-08-20T10:28:26.291Z,11.35
2022-08-20T10:30:55.157Z,12.38
2022-08-20T10:33:22.664Z,11.07
2022-08-20T10:35:50.175Z,11.73
2022-08-20T10:38:18.195Z,11.70
2022-08-20T10:40:50.936Z,11.43
2022-08-20T10:43:20.254Z,11.90
2022-08-20T10:45:47.714Z,11.77
2022-08-20T10:48:21.243Z,10.40
2022-08-20T10:50:49.068Z,11.57
2022-08-20T10:53:16.663Z,12.32
2022-08-20T10:55:44.286Z,12.38
2022-08-20T10:58:13.090Z,10.15
2022-08-20T11:00:41.142Z,12.73
2022-08-20T11:03:08.652Z,13.23
2022-08-20T11:05:37.466Z,13.32
2022-08-20T11:08:05.675Z,12.55
2022-08-20T11:10:34.408Z,13.30
2022-08-20T11:13:02.247Z,13.02
2022-08-20T11:15:29.856Z,11.98
2022-08-20T11:17:57.658Z,12.63
2022-08-20T11:20:26.402Z,12.27
2022-08-20T11:22:55.710Z,12.32
2022-08-20T11:25:23.476Z,12.05
2022-08-20T11:27:52.181Z,11.98
2022-08-20T11:30:21.135Z,12.75
2022-08-20T11:32:49.108Z,13.98
2022-08-20T11:35:41.552Z,13.85
2022-08-20T11:38:06.244Z,13.90
2022-08-20T11:40:33.947Z,12.68
2022-08-20T11:43:17.858Z,15.20
2022-08-20T11:45:46.361Z,13.35
2022-08-20T11:48:13.912Z,13.60
2022-08-20T11:50:41.410Z,10.35
2022-08-20T11:53:10.355Z,12.52
2022-08-20T11:55:38.798Z,15.15
2022-08-20T11:58:06.709Z,13.20
2022-08-20T12:00:36.673Z,12.77
2022-08-20T12:03:09.542Z,12.25
2022-08-20T12:05:37.680Z,15.40
2022-08-20T12:08:05.405Z,13.88
2022-08-20T12:10:34.407Z,12.90
2022-08-20T12:13:04.593Z,15.57
2022-08-20T12:15:32.775Z,13.95
2022-08-20T12:18:01.162Z,12.82
2022-08-20T12:20:28.774Z,14.55
2022-08-20T12:22:56.619Z,13.85
2022-08-20T12:25:24.217Z,11.82
2022-08-20T12:27:53.121Z,11.93
2022-08-20T12:30:22.056Z,11.45
2022-08-20T12:32:50.053Z,13.65
2022-08-20T12:35:18.228Z,14.25
2022-08-20T12:37:47.147Z,14.02
2022-08-20T12:40:16.836Z,13.48
2022-08-20T12:42:44.422Z,12.05
2022-08-20T12:45:13.636Z,13.88
2022-08-20T12:47:45.033Z,13.27
2022-08-20T12:50:13.993Z,13.05
2022-08-20T12:52:42.288Z,13.38
2022-08-20T12:55:10.819Z,9.30
2022-08-20T12:57:39.675Z,8.77
2022-08-20T13:00:10.433Z,5.57
2022-08-20T13:02:41.100Z,5.00
2022-08-20T13:05:09.340Z,6.57
2022-08-20T13:07:37.008Z,5.22
2022-08-20T13:10:05.234Z,4.60
2022-08-20T13:12:32.889Z,5.05
2022-08-20T13:15:00.471Z,6.65
2022-08-20T13:17:38.069Z,6.10
2022-08-20T13:20:10.591Z,7.35
2022-08-20T13:22:38.212Z,7.18
2022-08-20T13:25:06.131Z,9.48
2022-08-20T13:27:33.957Z,9.40
2022-08-20T13:30:01.516Z,8.82
2022-08-20T13:32:29.056Z,7.22
2022-08-20T13:34:56.595Z,5.75
2022-08-20T13:37:26.333Z,4.35
2022-08-20T13:39:54.193Z,4.20
2022-08-20T13:42:22.197Z,4.22
2022-08-20T13:44:49.962Z,4.20
2022-08-20T13:47:18.238Z,5.72
2022-08-20T13:49:46.031Z,5.80
2022-08-20T13:52:16.932Z,5.45
2022-08-20T13:54:46.043Z,4.53
2022-08-20T13:57:16.092Z,4.95
2022-08-20T13:59:44.548Z,4.80
2022-08-20T14:02:12.806Z,3.60
2022-08-20T14:04:40.380Z,4.13
2022-08-20T14:07:11.631Z,3.83
2022-08-20T14:09:40.312Z,4.78
2022-08-20T14:12:09.554Z,3.42
2022-08-20T14:14:37.158Z,3.90
2022-08-20T14:17:14.446Z,4.57
2022-08-20T14:19:42.692Z,5.22
2022-08-20T14:22:10.209Z,6.22
2022-08-20T14:24:37.870Z,6.82
2022-08-20T14:27:06.127Z,6.22
2022-08-20T14:29:36.630Z,7.10
2022-08-20T14:32:04.685Z,8.75
2022-08-20T14:34:32.299Z,7.82
2022-08-20T14:37:09.971Z,11.85
2022-08-20T14:39:37.533Z,8.80
2022-08-20T14:42:05.299Z,8.90
2022-08-20T14:44:32.779Z,8.73
2022-08-20T14:47:12.216Z,8.27
2022-08-20T14:49:39.828Z,7.38
2022-08-20T14:52:07.510Z,5.68
2022-08-20T14:54:35.100Z,5.47
2022-08-20T14:57:02.757Z,4.40
2022-08-20T14:59:30.259Z,4.30
2022-08-20T15:01:57.811Z,4.15
2022-08-20T15:04:26.651Z,3.75
2022-08-20T15:06:54.747Z,2.92
2022-08-20T15:09:22.279Z,3.30
2022-08-20T15:11:49.866Z,2.80
2022-08-20T15:14:18.541Z,3.80
2022-08-20T15:16:47.172Z,3.53
2022-08-20T15:19:15.074Z,2.90
2022-08-20T15:21:45.125Z,2.67
2022-08-20T15:24:19.053Z,2.83
2022-08-20T15:26:47.212Z,3.17
2022-08-20T15:29:22.595Z,2.90
2022-08-20T15:31:51.010Z,2.47
2022-08-20T15:34:18.617Z,3.00
2022-08-20T15:36:47.527Z,2.20
2022-08-20T15:39:15.074Z,2.80
2022-08-20T15:41:42.606Z,2.90
2022-08-20T15:44:10.064Z,2.83
2022-08-20T15:46:39.523Z,3.03
2022-08-20T15:49:09.939Z,3.42
2022-08-20T15:51:39.686Z,2.45
2022-08-20T15:54:11.083Z,3.08
2022-08-20T15:56:47.932Z,3.53
2022-08-20T15:59:22.627Z,2.55
2022-08-20T16:01:55.009Z,2.92
2022-08-20T16:04:29.595Z,2.63
2022-08-20T16:06:59.168Z,3.20
2022-08-20T16:09:42.562Z,3.53
2022-08-20T16:12:12.574Z,4.10
2022-08-20T16:14:40.958Z,3.20
2022-08-20T16:17:10.262Z,4.20
2022-08-20T16:19:41.846Z,3.28
2022-08-20T16:22:12.334Z,2.70
2022-08-20T16:24:41.205Z,4.43
2022-08-20T16:27:13.380Z,2.22
2022-08-20T16:29:45.782Z,2.35
2022-08-20T16:32:16.247Z,1.10
2022-08-20T16:34:45.134Z,1.02
2022-08-20T16:37:20.368Z,1.10
2022-08-20T16:39:53.199Z,0.60
2022-08-20T16:42:23.603Z,0.70
2022-08-20T16:44:52.130Z,2.25
2022-08-20T16:47:21.071Z,0.70
2022-08-20T16:49:50.331Z,0.85
2022-08-20T16:52:17.923Z,0.60
2022-08-20T16:54:45.606Z,3.13
2022-08-20T16:57:17.392Z,0.63
2022-08-20T16:59:58.601Z,16.05
2022-08-20T17:02:26.746Z,13.23
2022-08-20T17:04:59.203Z,1.50
2022-08-20T17:07:33.339Z,1.77
2022-08-20T17:10:09.200Z,3.53
2022-08-20T17:12:38.976Z,3.92
2022-08-20T17:15:07.053Z,5.40
2022-08-20T17:17:36.576Z,4.25
2022-08-20T17:20:05.873Z,3.58
2022-08-20T17:22:40.471Z,2.92
2022-08-20T17:25:12.742Z,5.68
2022-08-20T17:27:41.847Z,3.63
2022-08-20T17:30:20.207Z,4.35
2022-08-20T17:32:50.767Z,4.78
2022-08-20T17:35:33.223Z,4.40
2022-08-20T17:38:05.198Z,6.80
2022-08-20T17:40:34.786Z,2.75
2022-08-20T17:43:05.474Z,5.68
2022-08-20T17:45:36.433Z,3.50
2022-08-20T17:48:06.511Z,2.45
2022-08-20T17:50:35.792Z,2.95
2022-08-20T17:53:07.286Z,2.05
2022-08-20T17:55:36.338Z,7.72
2022-08-20T17:58:07.820Z,6.65
2022-08-20T18:00:35.311Z,4.38
2022-08-20T18:03:12.595Z,5.72
2022-08-20T18:05:40.574Z,3.10
2022-08-20T18:08:15.969Z,3.28
2022-08-20T18:10:49.242Z,4.47
2022-08-20T18:13:19.733Z,2.45
2022-08-20T18:15:50.403Z,2.15
2022-08-20T18:18:24.438Z,4.22
2022-08-20T18:21:12.906Z,2.72
2022-08-20T18:23:42.723Z,2.65
2022-08-20T18:26:17.515Z,2.53
2022-08-20T18:28:48.089Z,3.10
2022-08-20T18:31:25.327Z,2.05
2022-08-20T18:33:52.870Z,2.17
2022-08-20T18:36:25.448Z,2.15
2022-08-20T18:38:57.355Z,2.72
2022-08-20T18:41:28.012Z,1.90
2022-08-20T18:44:06.212Z,1.90
2022-08-20T18:46:34.046Z,5.32
2022-08-20T18:49:02.607Z,2.30
2022-08-20T18:51:33.821Z,3.60
2022-08-20T18:54:01.435Z,3.53
2022-08-20T18:56:31.756Z,3.00
2022-08-20T18:59:01.339Z,3.45
2022-08-20T19:01:31.214Z,2.80
2022-08-20T19:03:59.140Z,3.40
2022-08-20T19:06:31.975Z,3.83
2022-08-20T19:09:02.994Z,7.47
2022-08-20T19:11:52.424Z,2.58
2022-08-20T19:14:37.574Z,4.40
2022-08-20T19:17:08.346Z,2.22
2022-08-20T19:19:36.120Z,2.45
2022-08-20T19:22:03.985Z,11.02
2022-08-20T19:24:33.764Z,3.70
2022-08-20T19:27:04.430Z,12.65
2022-08-20T19:29:34.007Z,2.63
2022-08-20T19:32:02.463Z,3.40
2022-08-20T19:34:32.141Z,3.47
2022-08-20T19:37:08.943Z,3.30
2022-08-20T19:39:44.844Z,2.97
2022-08-20T19:42:14.621Z,3.03
2022-08-20T19:44:46.227Z,3.35
2022-08-20T19:47:20.088Z,2.40
2022-08-20T19:49:54.771Z,2.53
2022-08-20T19:52:26.903Z,3.25
2022-08-20T19:55:02.829Z,3.63
2022-08-20T19:57:31.274Z,2.47
2022-08-20T19:59:59.847Z,2.40
2022-08-20T20:02:29.324Z,3.22
2022-08-20T20:04:58.484Z,9.00
2022-08-20T20:07:27.718Z,2.97
2022-08-20T20:09:56.437Z,2.88
2022-08-20T20:12:24.171Z,5.47
2022-08-20T20:14:52.517Z,3.75
2022-08-20T20:17:23.034Z,3.25
2022-08-20T20:19:53.358Z,3.10
2022-08-20T20:22:26.083Z,2.80
2022-08-20T20:25:04.688Z,3.10
2022-08-20T20:27:33.234Z,3.40
2022-08-20T20:30:01.585Z,3.15
2022-08-20T20:32:30.428Z,2.75
2022-08-20T20:34:59.172Z,3.45
2022-08-20T20:37:49.170Z,2.95
2022-08-20T20:40:22.103Z,4.32
2022-08-20T20:42:58.370Z,3.90
2022-08-20T20:45:30.424Z,3.33
2022-08-20T20:47:57.987Z,4.70
2022-08-20T20:50:30.499Z,3.95
2022-08-20T20:53:00.005Z,11.75
2022-08-20T20:55:32.295Z,6.47
2022-08-20T20:58:02.634Z,5.90
2022-08-20T21:00:32.255Z,5.72
2022-08-20T21:03:02.812Z,3.75
2022-08-20T21:05:31.767Z,3.65
2022-08-20T21:08:01.255Z,3.88
2022-08-20T21:10:30.214Z,3.90
2022-08-20T21:12:57.829Z,3.63
2022-08-20T21:15:25.651Z,4.22
2022-08-20T21:17:53.563Z,3.20
2022-08-20T21:20:21.622Z,3.13
2022-08-20T21:22:49.171Z,3.03
2022-08-20T21:25:20.340Z,2.65
2022-08-20T21:27:49.217Z,2.95
2022-08-20T21:30:17.378Z,2.65
2022-08-20T21:32:45.030Z,2.95
2022-08-20T21:35:12.765Z,2.47
2022-08-20T21:37:40.537Z,3.15
2022-08-20T21:40:09.647Z,2.10
2022-08-20T21:42:39.412Z,1.88
2022-08-20T21:45:08.922Z,1.75
2022-08-20T21:47:36.478Z,3.08
2022-08-20T21:50:04.687Z,4.30
2022-08-20T21:52:32.254Z,4.20
2022-08-20T21:55:03.071Z,4.35
2022-08-20T21:57:33.129Z,4.22
2022-08-20T22:00:03.384Z,4.60
2022-08-20T22:02:32.147Z,4.15
2022-08-20T22:04:59.740Z,4.85
2022-08-20T22:07:27.351Z,5.82
2022-08-20T22:09:54.923Z,4.57
2022-08-20T22:12:24.038Z,5.00
2022-08-20T22:14:51.549Z,6.32
2022-08-20T22:17:20.450Z,4.80
2022-08-20T22:19:48.003Z,4.80
2022-08-20T22:22:15.682Z,5.00
2022-08-20T22:24:43.384Z,4.95
2022-08-20T22:27:10.918Z,5.57
2022-08-20T22:29:38.503Z,5.05
2022-08-20T22:32:06.605Z,5.82
2022-08-20T22:34:36.109Z,7.57
2022-08-20T22:37:04.190Z,4.95
2022-08-20T22:39:31.904Z,5.63
2022-08-20T22:41:59.825Z,5.95
2022-08-20T22:44:27.680Z,5.70
2022-08-20T22:46:57.820Z,5.85
2022-08-20T22:49:27.794Z,6.05
2022-08-20T22:51:56.823Z,6.18
2022-08-20T22:54:25.330Z,6.50
2022-08-20T22:56:53.563Z,6.65
2022-08-20T22:59:21.308Z,5.53
2022-08-20T23:01:50.741Z,7.38
2022-08-20T23:04:20.663Z,6.20
2022-08-20T23:06:48.237Z,6.25
2022-08-20T23:09:20.868Z,6.30
2022-08-20T23:11:49.054Z,5.78
2022-08-20T23:14:16.793Z,6.35
2022-08-20T23:16:45.267Z,6.20
2022-08-20T23:19:14.889Z,6.43
2022-08-20T23:21:42.381Z,6.25
2022-08-20T23:24:14.449Z,6.55
2022-08-20T23:26:50.298Z,6.82
2022-08-20T23:29:25.296Z,6.82
2022-08-20T23:31:53.936Z,6.65
2022-08-20T23:34:21.513Z,7.07
2022-08-20T23:36:49.250Z,6.40
2022-08-20T23:39:16.873Z,5.97
2022-08-20T23:41:47.685Z,6.45
2022-08-20T23:44:25.170Z,7.50
2022-08-20T23:46:54.755Z,7.82
2022-08-20T23:49:22.352Z,6.28
2022-08-20T23:51:49.888Z,7.88
2022-08-20T23:54:17.896Z,7.85
2022-08-20T23:56:46.853Z,6.63
2022-08-20T23:59:14.456Z,8.40
